sensor_id;sensor_type;location;lat;lon;timestamp;pressure;altitude;pressure_sealevel;temperature;humidity
77574;BME280;66710;48.868;9.080;2023-09-30T00:01:40;98856.81;;;15.57;100.00
77574;BME280;66710;48.868;9.080;2023-09-30T00:04:06;98859.84;;;15.55;100.00
77574;BME280;66710;48.868;9.080;2023-09-30T00:06:32;98849.97;;;15.49;100.00
77574;BME280;66710;48.868;9.080;2023-09-30T00:08:57;98856.84;;;15.52;100.00
77574;BME280;66710;48.868;9.080;2023-09-30T00:11:23;98857.97;;;15.46;100.00
77574;BME280;66710;48.868;9.080;2023-09-30T00:13:48;98849.81;;;15.35;100.00
77574;BME280;66710;48.868;9.080;2023-09-30T00:16:14;98853.66;;;15.29;100.00
77574;BME280;66710;48.868;9.080;2023-09-30T00:18:42;98854.22;;;15.26;100.00
77574;BME280;66710;48.868;9.080;2023-09-30T00:21:07;98858.63;;;15.22;100.00
77574;BME280;66710;48.868;9.080;2023-09-30T00:23:32;98847.94;;;15.21;100.00
77574;BME280;66710;48.868;9.080;2023-09-30T00:25:58;98848.50;;;15.17;100.00
77574;BME280;66710;48.868;9.080;2023-09-30T00:28:25;98854.28;;;15.16;100.00
77574;BME280;66710;48.868;9.080;2023-09-30T00:30:50;98857.06;;;15.11;100.00
77574;BME280;66710;48.868;9.080;2023-09-30T00:33:15;98862.28;;;15.12;100.00
77574;BME280;66710;48.868;9.080;2023-09-30T00:35:41;98864.44;;;15.10;100.00
77574;BME280;66710;48.868;9.080;2023-09-30T00:38:06;98856.81;;;15.02;100.00
77574;BME280;66710;48.868;9.080;2023-09-30T00:40:31;98860.16;;;14.89;100.00
77574;BME280;66710;48.868;9.080;2023-09-30T00:42:57;98858.28;;;14.79;100.00
77574;BME280;66710;48.868;9.080;2023-09-30T00:45:23;98859.09;;;14.69;100.00
77574;BME280;66710;48.868;9.080;2023-09-30T00:47:48;98864.06;;;14.62;100.00
77574;BME280;66710;48.868;9.080;2023-09-30T00:50:13;98863.22;;;14.56;100.00
77574;BME280;66710;48.868;9.080;2023-09-30T00:52:39;98875.00;;;14.57;100.00
77574;BME280;66710;48.868;9.080;2023-09-30T00:55:06;98861.31;;;14.52;100.00
77574;BME280;66710;48.868;9.080;2023-09-30T00:57:32;98861.03;;;14.43;100.00
77574;BME280;66710;48.868;9.080;2023-09-30T00:59:59;98859.69;;;14.46;100.00
77574;BME280;66710;48.868;9.080;2023-09-30T01:02:26;98865.72;;;14.43;100.00
77574;BME280;66710;48.868;9.080;2023-09-30T01:04:51;98867.91;;;14.40;100.00
77574;BME280;66710;48.868;9.080;2023-09-30T01:07:17;98868.47;;;14.37;100.00
77574;BME280;66710;48.868;9.080;2023-09-30T01:09:43;98868.72;;;14.36;100.00
77574;BME280;66710;48.868;9.080;2023-09-30T01:12:08;98867.09;;;14.30;100.00
77574;BME280;66710;48.868;9.080;2023-09-30T01:14:34;98873.13;;;14.27;100.00
77574;BME280;66710;48.868;9.080;2023-09-30T01:17:01;98862.97;;;14.27;100.00
77574;BME280;66710;48.868;9.080;2023-09-30T01:19:27;98869.56;;;14.31;100.00
77574;BME280;66710;48.868;9.080;2023-09-30T01:21:54;98857.78;;;14.26;100.00
77574;BME280;66710;48.868;9.080;2023-09-30T01:24:23;98858.63;;;14.21;100.00
77574;BME280;66710;48.868;9.080;2023-09-30T01:26:50;98858.34;;;14.12;100.00
77574;BME280;66710;48.868;9.080;2023-09-30T01:29:15;98858.06;;;14.09;100.00
77574;BME280;66710;48.868;9.080;2023-09-30T01:31:40;98860.78;;;14.24;100.00
77574;BME280;66710;48.868;9.080;2023-09-30T01:34:06;98858.63;;;14.26;100.00
77574;BME280;66710;48.868;9.080;2023-09-30T01:36:31;98868.19;;;14.34;100.00
77574;BME280;66710;48.868;9.080;2023-09-30T01:38:57;98870.66;;;14.46;100.00
77574;BME280;66710;48.868;9.080;2023-09-30T01:41:22;98879.41;;;14.53;100.00
77574;BME280;66710;48.868;9.080;2023-09-30T01:43:48;98873.09;;;14.63;100.00
77574;BME280;66710;48.868;9.080;2023-09-30T01:46:13;98876.38;;;14.70;100.00
77574;BME280;66710;48.868;9.080;2023-09-30T01:48:39;98871.47;;;14.67;100.00
77574;BME280;66710;48.868;9.080;2023-09-30T01:51:04;98878.59;;;14.63;100.00
77574;BME280;66710;48.868;9.080;2023-09-30T01:53:29;98879.69;;;14.56;100.00
77574;BME280;66710;48.868;9.080;2023-09-30T01:55:55;98873.94;;;14.53;100.00
77574;BME280;66710;48.868;9.080;2023-09-30T01:58:20;98864.31;;;14.45;100.00
77574;BME280;66710;48.868;9.080;2023-09-30T02:00:45;98865.44;;;14.44;100.00
77574;BME280;66710;48.868;9.080;2023-09-30T02:03:10;98870.66;;;14.40;100.00
77574;BME280;66710;48.868;9.080;2023-09-30T02:05:37;98865.44;;;14.39;100.00
77574;BME280;66710;48.868;9.080;2023-09-30T02:08:03;98856.41;;;14.38;100.00
77574;BME280;66710;48.868;9.080;2023-09-30T02:10:31;98862.72;;;14.39;100.00
77574;BME280;66710;48.868;9.080;2023-09-30T02:12:58;98869.53;;;14.36;100.00
77574;BME280;66710;48.868;9.080;2023-09-30T02:15:25;98873.41;;;14.35;100.00
77574;BME280;66710;48.868;9.080;2023-09-30T02:17:51;98879.44;;;14.37;100.00
77574;BME280;66710;48.868;9.080;2023-09-30T02:20:16;98884.09;;;14.37;100.00
77574;BME280;66710;48.868;9.080;2023-09-30T02:22:44;98876.16;;;14.40;100.00
77574;BME280;66710;48.868;9.080;2023-09-30T02:25:10;98873.69;;;14.29;100.00
77574;BME280;66710;48.868;9.080;2023-09-30T02:27:37;98878.63;;;14.32;100.00
77574;BME280;66710;48.868;9.080;2023-09-30T02:30:03;98887.09;;;14.35;100.00
77574;BME280;66710;48.868;9.080;2023-09-30T02:32:29;98882.72;;;14.34;100.00
77574;BME280;66710;48.868;9.080;2023-09-30T02:34:54;98884.91;;;14.32;100.00
77574;BME280;66710;48.868;9.080;2023-09-30T02:37:19;98879.69;;;14.31;100.00
77574;BME280;66710;48.868;9.080;2023-09-30T02:39:44;98883.28;;;14.31;100.00
77574;BME280;66710;48.868;9.080;2023-09-30T02:42:10;98878.88;;;14.30;100.00
77574;BME280;66710;48.868;9.080;2023-09-30T02:44:35;98881.09;;;14.28;100.00
77574;BME280;66710;48.868;9.080;2023-09-30T02:47:00;98878.88;;;14.30;100.00
77574;BME280;66710;48.868;9.080;2023-09-30T02:49:26;98884.63;;;14.34;100.00
77574;BME280;66710;48.868;9.080;2023-09-30T02:51:51;98880.25;;;14.33;100.00
77574;BME280;66710;48.868;9.080;2023-09-30T02:54:16;98871.19;;;14.32;100.00
77574;BME280;66710;48.868;9.080;2023-09-30T02:56:42;98874.22;;;14.31;100.00
77574;BME280;66710;48.868;9.080;2023-09-30T02:59:08;98869.84;;;14.30;100.00
77574;BME280;66710;48.868;9.080;2023-09-30T03:01:33;98879.97;;;14.29;100.00
77574;BME280;66710;48.868;9.080;2023-09-30T03:03:59;98882.44;;;14.31;100.00
77574;BME280;66710;48.868;9.080;2023-09-30T03:06:24;98889.84;;;14.30;100.00
77574;BME280;66710;48.868;9.080;2023-09-30T03:08:50;98887.91;;;14.31;100.00
77574;BME280;66710;48.868;9.080;2023-09-30T03:11:17;98903.00;;;14.33;100.00
77574;BME280;66710;48.868;9.080;2023-09-30T03:13:43;98905.47;;;14.35;100.00
77574;BME280;66710;48.868;9.080;2023-09-30T03:16:09;98910.13;;;14.39;100.00
77574;BME280;66710;48.868;9.080;2023-09-30T03:18:34;98905.75;;;14.38;100.00
77574;BME280;66710;48.868;9.080;2023-09-30T03:21:01;98913.97;;;14.28;100.00
77574;BME280;66710;48.868;9.080;2023-09-30T03:23:29;98907.66;;;14.33;100.00
77574;BME280;66710;48.868;9.080;2023-09-30T03:25:59;98909.03;;;14.35;100.00
77574;BME280;66710;48.868;9.080;2023-09-30T03:28:25;98902.16;;;14.38;100.00
77574;BME280;66710;48.868;9.080;2023-09-30T03:30:50;98907.13;;;14.36;100.00
77574;BME280;66710;48.868;9.080;2023-09-30T03:33:16;98904.91;;;14.33;100.00
77574;BME280;66710;48.868;9.080;2023-09-30T03:35:42;98909.31;;;14.29;100.00
77574;BME280;66710;48.868;9.080;2023-09-30T03:38:07;98896.41;;;14.29;100.00
77574;BME280;66710;48.868;9.080;2023-09-30T03:40:35;98888.75;;;14.31;100.00
77574;BME280;66710;48.868;9.080;2023-09-30T03:43:03;98881.63;;;14.35;100.00
77574;BME280;66710;48.868;9.080;2023-09-30T03:45:30;98889.03;;;14.35;100.00
77574;BME280;66710;48.868;9.080;2023-09-30T03:47:57;98887.38;;;14.29;100.00
77574;BME280;66710;48.868;9.080;2023-09-30T03:50:22;98897.53;;;14.13;100.00
77574;BME280;66710;48.868;9.080;2023-09-30T03:52:49;98888.50;;;14.07;100.00
77574;BME280;66710;48.868;9.080;2023-09-30T03:55:15;98887.69;;;14.12;100.00
77574;BME280;66710;48.868;9.080;2023-09-30T03:57:42;98893.41;;;14.20;100.00
77574;BME280;66710;48.868;9.080;2023-09-30T04:00:08;98884.63;;;14.29;100.00
77574;BME280;66710;48.868;9.080;2023-09-30T04:02:36;98885.44;;;14.29;100.00
77574;BME280;66710;48.868;9.080;2023-09-30T04:05:01;98896.41;;;14.34;100.00
77574;BME280;66710;48.868;9.080;2023-09-30T04:07:30;98896.41;;;14.39;100.00
77574;BME280;66710;48.868;9.080;2023-09-30T04:09:55;98897.22;;;14.45;100.00
77574;BME280;66710;48.868;9.080;2023-09-30T04:12:21;98900.28;;;14.44;100.00
77574;BME280;66710;48.868;9.080;2023-09-30T04:14:49;98907.91;;;14.47;100.00
77574;BME280;66710;48.868;9.080;2023-09-30T04:17:14;98911.78;;;14.46;100.00
77574;BME280;66710;48.868;9.080;2023-09-30T04:19:39;98901.09;;;14.44;100.00
77574;BME280;66710;48.868;9.080;2023-09-30T04:22:05;98895.34;;;14.35;100.00
77574;BME280;66710;48.868;9.080;2023-09-30T04:24:30;98893.69;;;14.39;100.00
77574;BME280;66710;48.868;9.080;2023-09-30T04:26:55;98896.97;;;14.36;100.00
77574;BME280;66710;48.868;9.080;2023-09-30T04:29:27;98900.81;;;14.35;100.00
77574;BME280;66710;48.868;9.080;2023-09-30T04:31:52;98900.81;;;14.30;100.00
77574;BME280;66710;48.868;9.080;2023-09-30T04:34:18;98902.75;;;14.35;100.00
77574;BME280;66710;48.868;9.080;2023-09-30T04:36:44;98909.31;;;14.29;100.00
77574;BME280;66710;48.868;9.080;2023-09-30T04:39:10;98916.19;;;14.26;100.00
77574;BME280;66710;48.868;9.080;2023-09-30T04:41:37;98920.53;;;14.27;100.00
77574;BME280;66710;48.868;9.080;2023-09-30T04:44:06;98927.13;;;14.21;100.00
77574;BME280;66710;48.868;9.080;2023-09-30T04:46:32;98918.66;;;14.22;100.00
77574;BME280;66710;48.868;9.080;2023-09-30T04:48:57;98917.00;;;14.21;100.00
77574;BME280;66710;48.868;9.080;2023-09-30T04:51:22;98928.50;;;14.18;100.00
77574;BME280;66710;48.868;9.080;2023-09-30T04:53:50;98937.28;;;14.15;100.00
77574;BME280;66710;48.868;9.080;2023-09-30T04:56:16;98934.81;;;14.14;100.00
77574;BME280;66710;48.868;9.080;2023-09-30T04:58:41;98935.88;;;14.13;100.00
77574;BME280;66710;48.868;9.080;2023-09-30T05:01:07;98945.50;;;14.10;100.00
77574;BME280;66710;48.868;9.080;2023-09-30T05:03:34;98944.94;;;14.13;100.00
77574;BME280;66710;48.868;9.080;2023-09-30T05:06:00;98946.84;;;14.13;100.00
77574;BME280;66710;48.868;9.080;2023-09-30T05:08:25;98943.03;;;14.09;100.00
77574;BME280;66710;48.868;9.080;2023-09-30T05:10:51;98943.56;;;14.11;100.00
77574;BME280;66710;48.868;9.080;2023-09-30T05:13:16;98945.75;;;14.09;100.00
77574;BME280;66710;48.868;9.080;2023-09-30T05:15:42;98953.13;;;14.08;100.00
77574;BME280;66710;48.868;9.080;2023-09-30T05:18:08;98959.19;;;14.10;100.00
77574;BME280;66710;48.868;9.080;2023-09-30T05:20:34;98947.94;;;14.07;100.00
77574;BME280;66710;48.868;9.080;2023-09-30T05:23:02;98949.28;;;13.99;100.00
77574;BME280;66710;48.868;9.080;2023-09-30T05:25:28;98940.78;;;13.90;100.00
77574;BME280;66710;48.868;9.080;2023-09-30T05:27:53;98941.34;;;13.87;100.00
77574;BME280;66710;48.868;9.080;2023-09-30T05:30:19;98938.03;;;13.85;100.00
77574;BME280;66710;48.868;9.080;2023-09-30T05:32:45;98929.53;;;13.76;100.00
77574;BME280;66710;48.868;9.080;2023-09-30T05:35:12;98934.72;;;13.62;100.00
77574;BME280;66710;48.868;9.080;2023-09-30T05:37:41;98935.22;;;13.54;100.00
77574;BME280;66710;48.868;9.080;2023-09-30T05:40:08;98934.69;;;13.57;100.00
77574;BME280;66710;48.868;9.080;2023-09-30T05:42:55;98927.31;;;13.63;100.00
77574;BME280;66710;48.868;9.080;2023-09-30T05:45:23;98941.00;;;13.63;100.00
77574;BME280;66710;48.868;9.080;2023-09-30T05:47:49;98950.84;;;13.64;100.00
77574;BME280;66710;48.868;9.080;2023-09-30T05:50:32;98951.69;;;13.64;100.00
77574;BME280;66710;48.868;9.080;2023-09-30T05:52:59;98967.28;;;13.64;100.00
77574;BME280;66710;48.868;9.080;2023-09-30T05:55:25;98973.03;;;13.68;100.00
77574;BME280;66710;48.868;9.080;2023-09-30T05:57:51;98973.63;;;13.70;100.00
77574;BME280;66710;48.868;9.080;2023-09-30T06:00:19;98957.72;;;13.72;100.00
77574;BME280;66710;48.868;9.080;2023-09-30T06:03:04;98949.28;;;13.78;100.00
77574;BME280;66710;48.868;9.080;2023-09-30T06:05:31;98959.16;;;13.90;100.00
77574;BME280;66710;48.868;9.080;2023-09-30T06:07:58;98962.72;;;13.95;100.00
77574;BME280;66710;48.868;9.080;2023-09-30T06:10:24;98980.25;;;14.04;100.00
77574;BME280;66710;48.868;9.080;2023-09-30T06:12:51;98985.75;;;14.15;100.00
77574;BME280;66710;48.868;9.080;2023-09-30T06:15:20;98998.91;;;14.13;100.00
77574;BME280;66710;48.868;9.080;2023-09-30T06:17:52;98998.94;;;14.23;100.00
77574;BME280;66710;48.868;9.080;2023-09-30T06:20:18;99005.56;;;14.53;100.00
77574;BME280;66710;48.868;9.080;2023-09-30T06:22:46;99000.94;;;14.74;100.00
77574;BME280;66710;48.868;9.080;2023-09-30T06:25:14;98997.91;;;14.70;100.00
77574;BME280;66710;48.868;9.080;2023-09-30T06:27:44;98993.78;;;14.68;100.00
77574;BME280;66710;48.868;9.080;2023-09-30T06:30:10;98992.69;;;14.64;100.00
77574;BME280;66710;48.868;9.080;2023-09-30T06:32:36;98992.69;;;14.79;100.00
77574;BME280;66710;48.868;9.080;2023-09-30T06:35:05;98994.03;;;15.02;100.00
77574;BME280;66710;48.868;9.080;2023-09-30T06:37:32;98995.97;;;14.91;100.00
77574;BME280;66710;48.868;9.080;2023-09-30T06:39:57;98995.44;;;14.58;100.00
77574;BME280;66710;48.868;9.080;2023-09-30T06:42:24;99003.34;;;14.96;100.00
77574;BME280;66710;48.868;9.080;2023-09-30T06:44:49;99011.56;;;15.22;100.00
77574;BME280;66710;48.868;9.080;2023-09-30T06:47:15;99008.22;;;15.35;100.00
77574;BME280;66710;48.868;9.080;2023-09-30T06:49:41;99010.75;;;15.16;100.00
77574;BME280;66710;48.868;9.080;2023-09-30T06:52:06;99010.78;;;15.06;100.00
77574;BME280;66710;48.868;9.080;2023-09-30T06:54:32;99014.34;;;14.96;100.00
77574;BME280;66710;48.868;9.080;2023-09-30T06:56:58;99020.66;;;14.86;100.00
77574;BME280;66710;48.868;9.080;2023-09-30T06:59:23;99020.91;;;15.05;100.00
77574;BME280;66710;48.868;9.080;2023-09-30T07:01:50;99024.75;;;15.20;100.00
77574;BME280;66710;48.868;9.080;2023-09-30T07:04:15;99019.81;;;15.16;100.00
77574;BME280;66710;48.868;9.080;2023-09-30T07:06:41;99012.00;;;15.49;100.00
77574;BME280;66710;48.868;9.080;2023-09-30T07:09:06;99012.13;;;15.99;100.00
77574;BME280;66710;48.868;9.080;2023-09-30T07:11:31;99007.81;;;16.33;100.00
77574;BME280;66710;48.868;9.080;2023-09-30T07:13:59;99010.75;;;15.97;100.00
77574;BME280;66710;48.868;9.080;2023-09-30T07:16:25;99009.81;;;16.17;100.00
77574;BME280;66710;48.868;9.080;2023-09-30T07:18:50;99017.56;;;16.09;100.00
77574;BME280;66710;48.868;9.080;2023-09-30T07:21:16;99017.56;;;16.49;100.00
77574;BME280;66710;48.868;9.080;2023-09-30T07:23:41;99020.03;;;16.90;100.00
77574;BME280;66710;48.868;9.080;2023-09-30T07:26:07;99027.50;;;16.79;100.00
77574;BME280;66710;48.868;9.080;2023-09-30T07:28:33;99033.81;;;17.19;100.00
77574;BME280;66710;48.868;9.080;2023-09-30T07:30:58;99040.59;;;17.27;100.00
77574;BME280;66710;48.868;9.080;2023-09-30T07:33:23;99031.75;;;17.30;100.00
77574;BME280;66710;48.868;9.080;2023-09-30T07:35:49;99026.44;;;17.39;100.00
77574;BME280;66710;48.868;9.080;2023-09-30T07:38:14;99028.28;;;17.43;100.00
77574;BME280;66710;48.868;9.080;2023-09-30T07:40:40;99025.97;;;17.02;100.00
77574;BME280;66710;48.868;9.080;2023-09-30T07:43:05;99037.41;;;17.44;100.00
77574;BME280;66710;48.868;9.080;2023-09-30T07:45:30;99047.66;;;18.11;100.00
77574;BME280;66710;48.868;9.080;2023-09-30T07:47:56;99054.75;;;17.93;100.00
77574;BME280;66710;48.868;9.080;2023-09-30T07:50:23;99052.59;;;18.33;100.00
77574;BME280;66710;48.868;9.080;2023-09-30T07:52:48;99063.22;;;18.97;100.00
77574;BME280;66710;48.868;9.080;2023-09-30T07:55:14;99068.72;;;18.64;99.92
77574;BME280;66710;48.868;9.080;2023-09-30T07:57:41;99060.19;;;18.41;99.50
77574;BME280;66710;48.868;9.080;2023-09-30T08:00:07;99067.25;;;19.04;100.00
77574;BME280;66710;48.868;9.080;2023-09-30T08:02:35;99062.44;;;18.39;100.00
77574;BME280;66710;48.868;9.080;2023-09-30T08:05:02;99051.66;;;17.75;100.00
77574;BME280;66710;48.868;9.080;2023-09-30T08:07:27;99050.19;;;18.07;100.00
77574;BME280;66710;48.868;9.080;2023-09-30T08:09:52;99053.13;;;17.92;100.00
77574;BME280;66710;48.868;9.080;2023-09-30T08:12:18;99041.78;;;18.55;100.00
77574;BME280;66710;48.868;9.080;2023-09-30T08:14:44;99039.03;;;17.69;100.00
77574;BME280;66710;48.868;9.080;2023-09-30T08:17:10;99035.50;;;18.50;100.00
77574;BME280;66710;48.868;9.080;2023-09-30T08:19:36;99044.28;;;19.37;88.53
77574;BME280;66710;48.868;9.080;2023-09-30T08:22:01;99044.63;;;19.63;91.86
77574;BME280;66710;48.868;9.080;2023-09-30T08:24:29;99042.31;;;19.98;86.86
77574;BME280;66710;48.868;9.080;2023-09-30T08:26:54;99044.38;;;20.29;85.17
77574;BME280;66710;48.868;9.080;2023-09-30T08:29:20;99042.81;;;20.00;85.29
77574;BME280;66710;48.868;9.080;2023-09-30T08:31:46;99052.81;;;18.36;98.78
77574;BME280;66710;48.868;9.080;2023-09-30T08:34:12;99053.78;;;18.27;96.58
77574;BME280;66710;48.868;9.080;2023-09-30T08:36:39;99049.31;;;19.35;91.04
77574;BME280;66710;48.868;9.080;2023-09-30T08:39:04;99039.00;;;19.68;90.41
77574;BME280;66710;48.868;9.080;2023-09-30T08:41:31;99026.91;;;19.64;85.82
77574;BME280;66710;48.868;9.080;2023-09-30T08:44:00;99029.28;;;18.77;91.93
77574;BME280;66710;48.868;9.080;2023-09-30T08:46:29;99031.16;;;19.14;88.82
77574;BME280;66710;48.868;9.080;2023-09-30T08:48:57;99041.31;;;18.67;92.74
77574;BME280;66710;48.868;9.080;2023-09-30T08:51:23;99052.50;;;18.38;93.71
77574;BME280;66710;48.868;9.080;2023-09-30T08:53:50;99049.47;;;18.59;93.16
77574;BME280;66710;48.868;9.080;2023-09-30T08:56:15;99049.50;;;18.15;100.00
77574;BME280;66710;48.868;9.080;2023-09-30T08:58:41;99030.19;;;19.52;87.97
77574;BME280;66710;48.868;9.080;2023-09-30T09:01:08;99032.13;;;19.65;87.08
77574;BME280;66710;48.868;9.080;2023-09-30T09:03:34;99035.78;;;18.10;97.25
77574;BME280;66710;48.868;9.080;2023-09-30T09:06:01;99037.44;;;18.11;100.00
77574;BME280;66710;48.868;9.080;2023-09-30T09:08:27;99045.25;;;17.80;98.57
77574;BME280;66710;48.868;9.080;2023-09-30T09:11:00;99052.19;;;17.77;100.00
77574;BME280;66710;48.868;9.080;2023-09-30T09:13:26;99060.06;;;17.84;100.00
77574;BME280;66710;48.868;9.080;2023-09-30T09:16:08;99070.38;;;18.03;97.46
77574;BME280;66710;48.868;9.080;2023-09-30T09:18:34;99065.72;;;18.60;97.52
77574;BME280;66710;48.868;9.080;2023-09-30T09:21:16;99046.66;;;19.71;87.50
77574;BME280;66710;48.868;9.080;2023-09-30T09:23:46;99057.88;;;20.44;81.45
77574;BME280;66710;48.868;9.080;2023-09-30T09:26:32;99055.97;;;19.47;84.81
77574;BME280;66710;48.868;9.080;2023-09-30T09:29:01;99061.25;;;18.45;93.02
77574;BME280;66710;48.868;9.080;2023-09-30T09:31:29;99062.09;;;19.44;89.88
77574;BME280;66710;48.868;9.080;2023-09-30T09:33:55;99042.69;;;19.63;87.11
77574;BME280;66710;48.868;9.080;2023-09-30T09:36:39;99049.50;;;20.35;79.86
77574;BME280;66710;48.868;9.080;2023-09-30T09:39:05;99042.75;;;21.40;73.97
77574;BME280;66710;48.868;9.080;2023-09-30T09:41:30;99033.25;;;21.01;76.47
77574;BME280;66710;48.868;9.080;2023-09-30T09:43:58;99024.63;;;21.57;73.73
77574;BME280;66710;48.868;9.080;2023-09-30T09:46:24;99032.59;;;21.27;75.30
77574;BME280;66710;48.868;9.080;2023-09-30T09:48:52;99035.31;;;21.90;71.51
77574;BME280;66710;48.868;9.080;2023-09-30T09:51:20;99034.81;;;21.88;68.49
77574;BME280;66710;48.868;9.080;2023-09-30T09:53:46;99040.81;;;22.30;67.44
77574;BME280;66710;48.868;9.080;2023-09-30T09:56:14;99028.03;;;22.03;67.94
77574;BME280;66710;48.868;9.080;2023-09-30T09:58:40;99034.63;;;22.59;64.35
77574;BME280;66710;48.868;9.080;2023-09-30T10:01:10;99035.59;;;21.71;65.34
77574;BME280;66710;48.868;9.080;2023-09-30T10:03:36;99038.72;;;22.62;62.91
77574;BME280;66710;48.868;9.080;2023-09-30T10:06:01;99041.97;;;22.72;62.01
77574;BME280;66710;48.868;9.080;2023-09-30T10:08:32;99036.56;;;22.59;61.54
77574;BME280;66710;48.868;9.080;2023-09-30T10:10:59;99025.94;;;22.96;58.38
77574;BME280;66710;48.868;9.080;2023-09-30T10:13:56;99009.50;;;21.81;68.02
77574;BME280;66710;48.868;9.080;2023-09-30T10:19:10;99009.09;;;23.09;60.31
77574;BME280;66710;48.868;9.080;2023-09-30T10:21:36;99014.50;;;23.06;59.71
77574;BME280;66710;48.868;9.080;2023-09-30T10:35:16;99006.72;;;23.76;58.81
77574;BME280;66710;48.868;9.080;2023-09-30T10:37:43;99011.56;;;22.59;62.22
77574;BME280;66710;48.868;9.080;2023-09-30T10:40:08;99013.25;;;23.42;60.04
77574;BME280;66710;48.868;9.080;2023-09-30T10:42:50;98994.25;;;23.44;59.66
77574;BME280;66710;48.868;9.080;2023-09-30T10:50:58;98988.38;;;23.45;59.02
77574;BME280;66710;48.868;9.080;2023-09-30T10:53:27;98997.16;;;22.22;60.69
77574;BME280;66710;48.868;9.080;2023-09-30T10:55:58;98986.94;;;23.69;58.53
77574;BME280;66710;48.868;9.080;2023-09-30T10:58:49;98995.25;;;22.31;60.91
77574;BME280;66710;48.868;9.080;2023-09-30T11:01:16;98990.28;;;22.02;63.20
77574;BME280;66710;48.868;9.080;2023-09-30T11:03:43;98988.09;;;21.72;63.49
77574;BME280;66710;48.868;9.080;2023-09-30T11:06:11;98988.47;;;21.39;65.32
77574;BME280;66710;48.868;9.080;2023-09-30T11:08:41;98982.53;;;20.70;66.96
77574;BME280;66710;48.868;9.080;2023-09-30T11:11:10;98976.97;;;20.47;67.93
77574;BME280;66710;48.868;9.080;2023-09-30T11:13:35;98968.75;;;21.41;63.99
77574;BME280;66710;48.868;9.080;2023-09-30T11:16:04;98976.06;;;21.86;61.87
77574;BME280;66710;48.868;9.080;2023-09-30T11:18:30;98970.81;;;21.75;58.94
77574;BME280;66710;48.868;9.080;2023-09-30T11:21:22;98959.09;;;22.83;57.47
77574;BME280;66710;48.868;9.080;2023-09-30T11:23:48;98960.44;;;23.33;56.16
77574;BME280;66710;48.868;9.080;2023-09-30T11:26:13;98967.53;;;23.04;55.51
77574;BME280;66710;48.868;9.080;2023-09-30T11:28:40;98965.47;;;23.40;53.07
77574;BME280;66710;48.868;9.080;2023-09-30T11:31:08;98965.72;;;23.26;56.68
77574;BME280;66710;48.868;9.080;2023-09-30T11:33:47;98968.09;;;23.36;53.95
77574;BME280;66710;48.868;9.080;2023-09-30T11:36:14;98962.44;;;23.24;54.95
77574;BME280;66710;48.868;9.080;2023-09-30T11:38:44;98965.31;;;22.89;57.78
77574;BME280;66710;48.868;9.080;2023-09-30T11:41:10;98957.47;;;23.98;54.54
77574;BME280;66710;48.868;9.080;2023-09-30T11:43:36;98963.25;;;24.35;52.86
77574;BME280;66710;48.868;9.080;2023-09-30T11:46:11;98959.03;;;24.71;49.49
77574;BME280;66710;48.868;9.080;2023-09-30T11:48:39;98948.19;;;24.36;50.61
77574;BME280;66710;48.868;9.080;2023-09-30T11:51:05;98946.00;;;24.41;48.88
77574;BME280;66710;48.868;9.080;2023-09-30T11:53:32;98947.09;;;24.28;49.64
77574;BME280;66710;48.868;9.080;2023-09-30T11:56:00;98956.59;;;24.69;48.10
77574;BME280;66710;48.868;9.080;2023-09-30T11:58:28;98952.81;;;24.11;49.25
77574;BME280;66710;48.868;9.080;2023-09-30T12:00:54;98963.38;;;23.96;50.97
77574;BME280;66710;48.868;9.080;2023-09-30T12:03:19;98975.00;;;24.62;49.76
77574;BME280;66710;48.868;9.080;2023-09-30T12:05:45;98965.72;;;24.57;48.63
77574;BME280;66710;48.868;9.080;2023-09-30T12:08:11;98963.81;;;23.47;46.63
77574;BME280;66710;48.868;9.080;2023-09-30T12:10:36;98964.22;;;23.97;47.50
77574;BME280;66710;48.868;9.080;2023-09-30T12:13:02;98961.31;;;23.55;49.09
77574;BME280;66710;48.868;9.080;2023-09-30T12:15:27;98965.25;;;23.15;50.13
77574;BME280;66710;48.868;9.080;2023-09-30T12:17:52;98961.06;;;24.19;49.08
77574;BME280;66710;48.868;9.080;2023-09-30T12:20:18;98958.59;;;24.06;47.72
77574;BME280;66710;48.868;9.080;2023-09-30T12:22:43;98948.06;;;24.11;45.88
77574;BME280;66710;48.868;9.080;2023-09-30T12:25:08;98959.59;;;24.64;44.78
77574;BME280;66710;48.868;9.080;2023-09-30T12:27:34;98953.06;;;24.39;44.91
77574;BME280;66710;48.868;9.080;2023-09-30T12:29:59;98956.75;;;24.31;43.70
77574;BME280;66710;48.868;9.080;2023-09-30T12:32:25;98952.44;;;22.58;49.68
77574;BME280;66710;48.868;9.080;2023-09-30T12:34:52;98949.31;;;22.25;52.11
77574;BME280;66710;48.868;9.080;2023-09-30T12:37:18;98956.88;;;22.42;54.38
77574;BME280;66710;48.868;9.080;2023-09-30T12:39:43;98952.63;;;22.36;54.28
77574;BME280;66710;48.868;9.080;2023-09-30T12:42:10;98947.06;;;22.36;53.93
77574;BME280;66710;48.868;9.080;2023-09-30T12:44:38;98953.34;;;21.66;57.26
77574;BME280;66710;48.868;9.080;2023-09-30T12:47:04;98948.69;;;22.45;55.68
77574;BME280;66710;48.868;9.080;2023-09-30T12:49:30;98946.47;;;23.03;52.37
77574;BME280;66710;48.868;9.080;2023-09-30T12:51:55;98954.81;;;23.72;52.03
77574;BME280;66710;48.868;9.080;2023-09-30T12:54:22;98949.06;;;24.07;49.92
77574;BME280;66710;48.868;9.080;2023-09-30T12:56:48;98950.06;;;24.65;48.24
77574;BME280;66710;48.868;9.080;2023-09-30T12:59:16;98948.25;;;23.46;49.51
77574;BME280;66710;48.868;9.080;2023-09-30T13:01:42;98956.50;;;22.69;52.23
77574;BME280;66710;48.868;9.080;2023-09-30T13:04:07;98961.25;;;22.60;51.77
77574;BME280;66710;48.868;9.080;2023-09-30T13:06:33;98945.13;;;22.27;53.96
77574;BME280;66710;48.868;9.080;2023-09-30T13:09:01;98939.50;;;22.71;54.51
77574;BME280;66710;48.868;9.080;2023-09-30T13:11:26;98936.66;;;22.97;51.75